sensor_id;sensor_type;location;lat;lon;timestamp;temperature;humidity
25058;DHT22;13057;50.978;11.034;2022-10-10T00:01:20;8.50;99.90
25058;DHT22;13057;50.978;11.034;2022-10-10T00:03:47;8.50;99.90
25058;DHT22;13057;50.978;11.034;2022-10-10T00:06:14;8.40;99.90
25058;DHT22;13057;50.978;11.034;2022-10-10T00:08:40;8.50;99.90
25058;DHT22;13057;50.978;11.034;2022-10-10T00:11:06;8.50;99.90
25058;DHT22;13057;50.978;11.034;2022-10-10T00:13:32;8.40;99.90
25058;DHT22;13057;50.978;11.034;2022-10-10T00:15:58;8.40;99.90
25058;DHT22;13057;50.978;11.034;2022-10-10T00:18:24;8.30;99.90
25058;DHT22;13057;50.978;11.034;2022-10-10T00:20:51;8.30;99.90
25058;DHT22;13057;50.978;11.034;2022-10-10T00:23:17;8.30;99.90
25058;DHT22;13057;50.978;11.034;2022-10-10T00:25:44;8.20;99.90
25058;DHT22;13057;50.978;11.034;2022-10-10T00:28:09;8.20;99.90
25058;DHT22;13057;50.978;11.034;2022-10-10T00:30:37;8.20;99.90
25058;DHT22;13057;50.978;11.034;2022-10-10T00:33:03;8.20;99.90
25058;DHT22;13057;50.978;11.034;2022-10-10T00:35:38;8.30;99.90
25058;DHT22;13057;50.978;11.034;2022-10-10T00:38:07;8.30;99.90
25058;DHT22;13057;50.978;11.034;2022-10-10T00:40:33;8.30;99.90
25058;DHT22;13057;50.978;11.034;2022-10-10T00:42:59;8.30;99.90
25058;DHT22;13057;50.978;11.034;2022-10-10T00:45:36;8.30;99.90
25058;DHT22;13057;50.978;11.034;2022-10-10T00:48:11;8.30;99.90
25058;DHT22;13057;50.978;11.034;2022-10-10T00:50:43;8.40;99.90
25058;DHT22;13057;50.978;11.034;2022-10-10T00:53:11;8.40;99.90
25058;DHT22;13057;50.978;11.034;2022-10-10T00:55:37;8.40;99.90
25058;DHT22;13057;50.978;11.034;2022-10-10T00:58:05;8.40;99.90
25058;DHT22;13057;50.978;11.034;2022-10-10T01:00:32;8.40;99.90
25058;DHT22;13057;50.978;11.034;2022-10-10T01:02:58;8.40;99.90
25058;DHT22;13057;50.978;11.034;2022-10-10T01:05:24;8.40;99.90
25058;DHT22;13057;50.978;11.034;2022-10-10T01:07:50;8.40;99.90
25058;DHT22;13057;50.978;11.034;2022-10-10T01:10:18;8.50;99.90
25058;DHT22;13057;50.978;11.034;2022-10-10T01:13:06;8.60;99.90
25058;DHT22;13057;50.978;11.034;2022-10-10T01:15:53;8.60;99.90
25058;DHT22;13057;50.978;11.034;2022-10-10T01:18:40;8.60;99.90
25058;DHT22;13057;50.978;11.034;2022-10-10T01:21:14;8.60;99.90
25058;DHT22;13057;50.978;11.034;2022-10-10T01:27:02;8.60;99.90
25058;DHT22;13057;50.978;11.034;2022-10-10T01:29:37;8.60;99.90
25058;DHT22;13057;50.978;11.034;2022-10-10T01:32:09;8.60;99.90
25058;DHT22;13057;50.978;11.034;2022-10-10T01:34:57;8.60;99.90
25058;DHT22;13057;50.978;11.034;2022-10-10T01:37:34;8.60;99.90
25058;DHT22;13057;50.978;11.034;2022-10-10T01:40:17;8.70;99.90
25058;DHT22;13057;50.978;11.034;2022-10-10T01:42:52;8.60;99.90
25058;DHT22;13057;50.978;11.034;2022-10-10T01:45:19;8.60;99.90
25058;DHT22;13057;50.978;11.034;2022-10-10T01:47:46;8.60;99.90
25058;DHT22;13057;50.978;11.034;2022-10-10T01:50:16;8.70;99.90
25058;DHT22;13057;50.978;11.034;2022-10-10T01:52:51;8.70;99.90
25058;DHT22;13057;50.978;11.034;2022-10-10T01:55:32;8.70;99.90
25058;DHT22;13057;50.978;11.034;2022-10-10T02:00:59;8.70;99.90
25058;DHT22;13057;50.978;11.034;2022-10-10T02:03:32;8.70;99.90
25058;DHT22;13057;50.978;11.034;2022-10-10T02:06:11;8.70;99.90
25058;DHT22;13057;50.978;11.034;2022-10-10T02:08:45;8.70;99.90
25058;DHT22;13057;50.978;11.034;2022-10-10T02:11:12;8.80;99.90
25058;DHT22;13057;50.978;11.034;2022-10-10T02:13:48;8.80;99.90
25058;DHT22;13057;50.978;11.034;2022-10-10T02:16:18;8.90;99.90
25058;DHT22;13057;50.978;11.034;2022-10-10T02:18:47;8.90;99.90
25058;DHT22;13057;50.978;11.034;2022-10-10T02:21:14;8.90;99.90
25058;DHT22;13057;50.978;11.034;2022-10-10T02:23:42;8.90;99.90
25058;DHT22;13057;50.978;11.034;2022-10-10T02:26:12;8.90;99.90
25058;DHT22;13057;50.978;11.034;2022-10-10T02:28:46;9.00;99.90
25058;DHT22;13057;50.978;11.034;2022-10-10T02:31:20;9.00;99.90
25058;DHT22;13057;50.978;11.034;2022-10-10T02:33:53;9.00;99.90
25058;DHT22;13057;50.978;11.034;2022-10-10T02:36:22;9.00;99.90
25058;DHT22;13057;50.978;11.034;2022-10-10T02:38:51;9.00;99.90
25058;DHT22;13057;50.978;11.034;2022-10-10T02:41:17;8.90;99.90
25058;DHT22;13057;50.978;11.034;2022-10-10T02:43:44;8.90;99.90
25058;DHT22;13057;50.978;11.034;2022-10-10T02:46:12;8.80;99.90
25058;DHT22;13057;50.978;11.034;2022-10-10T02:48:39;8.80;99.90
25058;DHT22;13057;50.978;11.034;2022-10-10T02:51:05;8.70;99.90
25058;DHT22;13057;50.978;11.034;2022-10-10T02:53:33;8.60;99.90
25058;DHT22;13057;50.978;11.034;2022-10-10T02:55:59;8.60;99.90
25058;DHT22;13057;50.978;11.034;2022-10-10T02:58:25;8.60;99.90
25058;DHT22;13057;50.978;11.034;2022-10-10T03:00:50;8.60;99.90
25058;DHT22;13057;50.978;11.034;2022-10-10T03:03:16;8.60;99.90
25058;DHT22;13057;50.978;11.034;2022-10-10T03:05:42;8.60;99.90
25058;DHT22;13057;50.978;11.034;2022-10-10T03:08:08;8.70;99.90
25058;DHT22;13057;50.978;11.034;2022-10-10T03:10:34;8.60;99.90
25058;DHT22;13057;50.978;11.034;2022-10-10T03:13:00;8.60;99.90
25058;DHT22;13057;50.978;11.034;2022-10-10T03:15:25;8.60;99.90
25058;DHT22;13057;50.978;11.034;2022-10-10T03:17:51;8.50;99.90
25058;DHT22;13057;50.978;11.034;2022-10-10T03:20:17;8.50;99.90
25058;DHT22;13057;50.978;11.034;2022-10-10T03:22:43;8.50;99.90
25058;DHT22;13057;50.978;11.034;2022-10-10T03:25:09;8.50;99.90
25058;DHT22;13057;50.978;11.034;2022-10-10T03:27:34;8.50;99.90
25058;DHT22;13057;50.978;11.034;2022-10-10T03:30:00;8.50;99.90
25058;DHT22;13057;50.978;11.034;2022-10-10T03:32:26;8.50;99.90
25058;DHT22;13057;50.978;11.034;2022-10-10T03:34:52;8.50;99.90
25058;DHT22;13057;50.978;11.034;2022-10-10T03:37:18;8.60;99.90
25058;DHT22;13057;50.978;11.034;2022-10-10T03:39:44;8.60;99.90
25058;DHT22;13057;50.978;11.034;2022-10-10T03:42:10;8.60;99.90
25058;DHT22;13057;50.978;11.034;2022-10-10T03:44:35;8.50;99.90
25058;DHT22;13057;50.978;11.034;2022-10-10T03:47:01;8.50;99.90
25058;DHT22;13057;50.978;11.034;2022-10-10T03:49:27;8.50;99.90
25058;DHT22;13057;50.978;11.034;2022-10-10T03:51:53;8.50;99.90
25058;DHT22;13057;50.978;11.034;2022-10-10T03:54:19;8.50;99.90
25058;DHT22;13057;50.978;11.034;2022-10-10T03:56:45;8.50;99.90
25058;DHT22;13057;50.978;11.034;2022-10-10T03:59:11;8.40;99.90
25058;DHT22;13057;50.978;11.034;2022-10-10T04:01:36;8.40;99.90
25058;DHT22;13057;50.978;11.034;2022-10-10T04:04:02;8.40;99.90
25058;DHT22;13057;50.978;11.034;2022-10-10T04:06:29;8.40;99.90
25058;DHT22;13057;50.978;11.034;2022-10-10T04:08:55;8.50;99.90
25058;DHT22;13057;50.978;11.034;2022-10-10T04:11:21;8.50;99.90
25058;DHT22;13057;50.978;11.034;2022-10-10T04:13:47;8.50;99.90
25058;DHT22;13057;50.978;11.034;2022-10-10T04:16:13;8.50;99.90
25058;DHT22;13057;50.978;11.034;2022-10-10T04:18:39;8.60;99.90
25058;DHT22;13057;50.978;11.034;2022-10-10T04:21:05;8.60;99.90
25058;DHT22;13057;50.978;11.034;2022-10-10T04:23:31;8.60;99.90
25058;DHT22;13057;50.978;11.034;2022-10-10T04:25:57;8.60;99.90
25058;DHT22;13057;50.978;11.034;2022-10-10T04:28:23;8.60;99.90
25058;DHT22;13057;50.978;11.034;2022-10-10T04:30:49;8.70;99.90
25058;DHT22;13057;50.978;11.034;2022-10-10T04:33:15;8.60;99.90
25058;DHT22;13057;50.978;11.034;2022-10-10T04:35:40;8.50;99.90
25058;DHT22;13057;50.978;11.034;2022-10-10T04:38:06;8.50;99.90
25058;DHT22;13057;50.978;11.034;2022-10-10T04:40:34;8.50;99.90
25058;DHT22;13057;50.978;11.034;2022-10-10T04:42:59;8.50;99.90
25058;DHT22;13057;50.978;11.034;2022-10-10T04:45:25;8.50;99.90
25058;DHT22;13057;50.978;11.034;2022-10-10T04:47:52;8.50;99.90
25058;DHT22;13057;50.978;11.034;2022-10-10T04:50:18;8.60;99.90
25058;DHT22;13057;50.978;11.034;2022-10-10T04:52:44;8.60;99.90
25058;DHT22;13057;50.978;11.034;2022-10-10T04:55:10;8.60;99.90
25058;DHT22;13057;50.978;11.034;2022-10-10T04:57:36;8.60;99.90
25058;DHT22;13057;50.978;11.034;2022-10-10T05:00:04;8.70;99.90
25058;DHT22;13057;50.978;11.034;2022-10-10T05:02:30;8.60;99.90
25058;DHT22;13057;50.978;11.034;2022-10-10T05:04:56;8.60;99.90
25058;DHT22;13057;50.978;11.034;2022-10-10T05:07:22;8.60;99.90
25058;DHT22;13057;50.978;11.034;2022-10-10T05:09:48;8.60;99.90
25058;DHT22;13057;50.978;11.034;2022-10-10T05:12:14;8.60;99.90
25058;DHT22;13057;50.978;11.034;2022-10-10T05:14:40;8.60;99.90
25058;DHT22;13057;50.978;11.034;2022-10-10T05:17:06;8.60;99.90
25058;DHT22;13057;50.978;11.034;2022-10-10T05:19:32;8.60;99.90
25058;DHT22;13057;50.978;11.034;2022-10-10T05:21:58;8.60;99.90
25058;DHT22;13057;50.978;11.034;2022-10-10T05:24:24;8.60;99.90
25058;DHT22;13057;50.978;11.034;2022-10-10T05:26:50;8.60;99.90
25058;DHT22;13057;50.978;11.034;2022-10-10T05:29:15;8.60;99.90
25058;DHT22;13057;50.978;11.034;2022-10-10T05:31:41;8.60;99.90
25058;DHT22;13057;50.978;11.034;2022-10-10T05:34:11;8.60;99.90
25058;DHT22;13057;50.978;11.034;2022-10-10T05:36:39;8.60;99.90
25058;DHT22;13057;50.978;11.034;2022-10-10T05:39:05;8.60;99.90
25058;DHT22;13057;50.978;11.034;2022-10-10T05:41:31;8.60;99.90
25058;DHT22;13057;50.978;11.034;2022-10-10T05:43:56;8.60;99.90
25058;DHT22;13057;50.978;11.034;2022-10-10T05:46:22;8.60;99.90
25058;DHT22;13057;50.978;11.034;2022-10-10T05:48:51;8.60;99.90
25058;DHT22;13057;50.978;11.034;2022-10-10T05:51:18;8.60;99.90
25058;DHT22;13057;50.978;11.034;2022-10-10T05:53:44;8.60;99.90
25058;DHT22;13057;50.978;11.034;2022-10-10T05:56:11;8.50;99.90
25058;DHT22;13057;50.978;11.034;2022-10-10T05:58:37;8.60;99.90
25058;DHT22;13057;50.978;11.034;2022-10-10T06:01:04;8.60;99.90
25058;DHT22;13057;50.978;11.034;2022-10-10T06:03:31;8.50;99.90
25058;DHT22;13057;50.978;11.034;2022-10-10T06:05:57;8.50;99.90
25058;DHT22;13057;50.978;11.034;2022-10-10T06:08:23;8.60;99.90
25058;DHT22;13057;50.978;11.034;2022-10-10T06:10:50;8.60;99.90
25058;DHT22;13057;50.978;11.034;2022-10-10T06:13:17;8.60;99.90
25058;DHT22;13057;50.978;11.034;2022-10-10T06:15:43;8.60;99.90
25058;DHT22;13057;50.978;11.034;2022-10-10T06:18:10;8.60;99.90
25058;DHT22;13057;50.978;11.034;2022-10-10T06:20:37;8.60;99.90
25058;DHT22;13057;50.978;11.034;2022-10-10T06:23:05;8.50;99.90
25058;DHT22;13057;50.978;11.034;2022-10-10T06:25:33;8.50;99.90
25058;DHT22;13057;50.978;11.034;2022-10-10T06:27:59;8.50;99.90
25058;DHT22;13057;50.978;11.034;2022-10-10T06:30:25;8.50;99.90
25058;DHT22;13057;50.978;11.034;2022-10-10T06:32:51;8.50;99.90
25058;DHT22;13057;50.978;11.034;2022-10-10T06:35:18;8.50;99.90
25058;DHT22;13057;50.978;11.034;2022-10-10T06:37:44;8.50;99.90
25058;DHT22;13057;50.978;11.034;2022-10-10T06:40:10;8.50;99.90
25058;DHT22;13057;50.978;11.034;2022-10-10T06:42:36;8.50;99.90
25058;DHT22;13057;50.978;11.034;2022-10-10T06:45:02;8.60;99.90
25058;DHT22;13057;50.978;11.034;2022-10-10T06:47:29;8.80;99.90
25058;DHT22;13057;50.978;11.034;2022-10-10T06:49:55;8.90;99.90
25058;DHT22;13057;50.978;11.034;2022-10-10T06:52:21;8.90;99.90
25058;DHT22;13057;50.978;11.034;2022-10-10T06:54:47;8.90;99.90
25058;DHT22;13057;50.978;11.034;2022-10-10T06:57:13;8.90;99.90
25058;DHT22;13057;50.978;11.034;2022-10-10T06:59:38;8.90;99.90
25058;DHT22;13057;50.978;11.034;2022-10-10T07:02:04;8.90;99.90
25058;DHT22;13057;50.978;11.034;2022-10-10T07:04:30;8.90;99.90
25058;DHT22;13057;50.978;11.034;2022-10-10T07:06:56;8.90;99.90
25058;DHT22;13057;50.978;11.034;2022-10-10T07:09:21;9.00;99.90
25058;DHT22;13057;50.978;11.034;2022-10-10T07:11:48;9.00;99.90
25058;DHT22;13057;50.978;11.034;2022-10-10T07:14:13;9.10;99.90
25058;DHT22;13057;50.978;11.034;2022-10-10T07:16:39;9.10;99.90
25058;DHT22;13057;50.978;11.034;2022-10-10T07:19:05;9.20;99.90
25058;DHT22;13057;50.978;11.034;2022-10-10T07:21:32;9.30;99.90
25058;DHT22;13057;50.978;11.034;2022-10-10T07:23:57;9.40;99.90
25058;DHT22;13057;50.978;11.034;2022-10-10T07:26:23;9.50;99.90
25058;DHT22;13057;50.978;11.034;2022-10-10T07:28:53;9.50;99.90
25058;DHT22;13057;50.978;11.034;2022-10-10T07:31:18;9.50;99.90
25058;DHT22;13057;50.978;11.034;2022-10-10T07:33:46;9.60;99.90
25058;DHT22;13057;50.978;11.034;2022-10-10T07:36:13;9.70;99.90
25058;DHT22;13057;50.978;11.034;2022-10-10T07:38:39;9.80;99.90
25058;DHT22;13057;50.978;11.034;2022-10-10T07:41:07;9.80;99.90
25058;DHT22;13057;50.978;11.034;2022-10-10T07:43:33;9.90;99.90
25058;DHT22;13057;50.978;11.034;2022-10-10T07:45:59;9.90;99.90
25058;DHT22;13057;50.978;11.034;2022-10-10T07:48:26;10.00;99.90
25058;DHT22;13057;50.978;11.034;2022-10-10T07:50:51;10.10;99.90
25058;DHT22;13057;50.978;11.034;2022-10-10T07:53:17;10.10;99.90
25058;DHT22;13057;50.978;11.034;2022-10-10T07:55:43;10.20;99.90
25058;DHT22;13057;50.978;11.034;2022-10-10T07:58:10;10.30;99.90
25058;DHT22;13057;50.978;11.034;2022-10-10T08:00:37;10.40;99.90
25058;DHT22;13057;50.978;11.034;2022-10-10T08:03:06;10.50;99.90
25058;DHT22;13057;50.978;11.034;2022-10-10T08:05:32;10.60;99.90
25058;DHT22;13057;50.978;11.034;2022-10-10T08:07:58;10.70;99.90
25058;DHT22;13057;50.978;11.034;2022-10-10T08:10:24;10.70;99.90
25058;DHT22;13057;50.978;11.034;2022-10-10T08:12:50;10.80;99.90
25058;DHT22;13057;50.978;11.034;2022-10-10T08:15:16;10.90;99.90
25058;DHT22;13057;50.978;11.034;2022-10-10T08:17:42;10.90;99.90
25058;DHT22;13057;50.978;11.034;2022-10-10T08:20:08;10.90;99.90
25058;DHT22;13057;50.978;11.034;2022-10-10T08:22:34;11.00;99.90
25058;DHT22;13057;50.978;11.034;2022-10-10T08:25:00;11.00;99.90
25058;DHT22;13057;50.978;11.034;2022-10-10T08:27:26;11.10;99.90
25058;DHT22;13057;50.978;11.034;2022-10-10T08:29:53;11.20;99.90
25058;DHT22;13057;50.978;11.034;2022-10-10T08:32:18;11.30;99.90
25058;DHT22;13057;50.978;11.034;2022-10-10T08:34:44;11.30;99.90
25058;DHT22;13057;50.978;11.034;2022-10-10T08:37:10;11.40;99.90
25058;DHT22;13057;50.978;11.034;2022-10-10T08:39:36;11.50;99.90
25058;DHT22;13057;50.978;11.034;2022-10-10T08:42:02;11.60;99.90
25058;DHT22;13057;50.978;11.034;2022-10-10T08:44:36;11.70;99.90
25058;DHT22;13057;50.978;11.034;2022-10-10T08:47:10;11.80;99.90
25058;DHT22;13057;50.978;11.034;2022-10-10T08:49:49;11.90;99.90
25058;DHT22;13057;50.978;11.034;2022-10-10T08:52:34;12.00;99.90
25058;DHT22;13057;50.978;11.034;2022-10-10T08:55:07;12.10;99.90
25058;DHT22;13057;50.978;11.034;2022-10-10T08:57:49;12.50;99.90
25058;DHT22;13057;50.978;11.034;2022-10-10T09:00:19;13.00;99.90
25058;DHT22;13057;50.978;11.034;2022-10-10T09:02:51;13.40;99.90
25058;DHT22;13057;50.978;11.034;2022-10-10T09:05:32;13.60;99.90
25058;DHT22;13057;50.978;11.034;2022-10-10T09:08:23;13.70;99.90
25058;DHT22;13057;50.978;11.034;2022-10-10T09:10:57;13.90;99.90
25058;DHT22;13057;50.978;11.034;2022-10-10T09:13:32;14.00;99.90
25058;DHT22;13057;50.978;11.034;2022-10-10T09:16:02;14.10;99.90
25058;DHT22;13057;50.978;11.034;2022-10-10T09:18:38;14.20;99.90
25058;DHT22;13057;50.978;11.034;2022-10-10T09:21:17;14.30;99.90
25058;DHT22;13057;50.978;11.034;2022-10-10T09:23:49;14.40;99.90
25058;DHT22;13057;50.978;11.034;2022-10-10T09:26:21;14.60;99.90
25058;DHT22;13057;50.978;11.034;2022-10-10T09:29:03;14.70;99.90
25058;DHT22;13057;50.978;11.034;2022-10-10T09:31:39;14.80;99.90
25058;DHT22;13057;50.978;11.034;2022-10-10T09:34:16;14.90;99.90
25058;DHT22;13057;50.978;11.034;2022-10-10T09:36:45;15.00;99.90
25058;DHT22;13057;50.978;11.034;2022-10-10T09:39:30;15.10;99.90
25058;DHT22;13057;50.978;11.034;2022-10-10T09:42:02;15.30;99.90
25058;DHT22;13057;50.978;11.034;2022-10-10T09:44:31;15.50;99.90
25058;DHT22;13057;50.978;11.034;2022-10-10T09:46:58;15.60;99.60
25058;DHT22;13057;50.978;11.034;2022-10-10T09:49:25;15.70;99.60
25058;DHT22;13057;50.978;11.034;2022-10-10T09:51:51;15.80;99.10
25058;DHT22;13057;50.978;11.034;2022-10-10T09:54:18;15.90;99.50
25058;DHT22;13057;50.978;11.034;2022-10-10T09:56:52;16.10;99.60
25058;DHT22;13057;50.978;11.034;2022-10-10T09:59:34;16.20;99.10
25058;DHT22;13057;50.978;11.034;2022-10-10T10:02:01;16.30;98.20
25058;DHT22;13057;50.978;11.034;2022-10-10T10:04:32;16.30;98.40
25058;DHT22;13057;50.978;11.034;2022-10-10T10:07:05;16.40;98.50
25058;DHT22;13057;50.978;11.034;2022-10-10T10:09:33;16.50;98.40
25058;DHT22;13057;50.978;11.034;2022-10-10T10:11:59;16.60;98.20
25058;DHT22;13057;50.978;11.034;2022-10-10T10:14:28;16.70;98.10
25058;DHT22;13057;50.978;11.034;2022-10-10T10:17:06;16.70;97.80
25058;DHT22;13057;50.978;11.034;2022-10-10T10:19:38;16.70;97.40
25058;DHT22;13057;50.978;11.034;2022-10-10T10:22:21;16.80;97.40
25058;DHT22;13057;50.978;11.034;2022-10-10T10:24:47;16.80;97.90
25058;DHT22;13057;50.978;11.034;2022-10-10T10:27:19;16.90;97.90
25058;DHT22;13057;50.978;11.034;2022-10-10T10:29:47;16.90;97.90
25058;DHT22;13057;50.978;11.034;2022-10-10T10:32:37;17.00;97.80
25058;DHT22;13057;50.978;11.034;2022-10-10T10:35:18;17.00;97.50
25058;DHT22;13057;50.978;11.034;2022-10-10T10:38:06;17.10;97.60
25058;DHT22;13057;50.978;11.034;2022-10-10T10:40:40;17.10;97.60
25058;DHT22;13057;50.978;11.034;2022-10-10T10:43:28;17.10;97.30
25058;DHT22;13057;50.978;11.034;2022-10-10T10:46:20;17.20;97.60
25058;DHT22;13057;50.978;11.034;2022-10-10T10:49:01;17.30;97.60
25058;DHT22;13057;50.978;11.034;2022-10-10T10:51:48;17.30;97.10
25058;DHT22;13057;50.978;11.034;2022-10-10T10:54:36;17.30;97.20
25058;DHT22;13057;50.978;11.034;2022-10-10T10:57:12;17.40;96.80
25058;DHT22;13057;50.978;11.034;2022-10-10T10:59:59;17.40;97.00
25058;DHT22;13057;50.978;11.034;2022-10-10T11:02:40;17.40;96.80
25058;DHT22;13057;50.978;11.034;2022-10-10T11:05:32;17.40;96.70
25058;DHT22;13057;50.978;11.034;2022-10-10T11:08:04;17.50;96.70
25058;DHT22;13057;50.978;11.034;2022-10-10T11:10:44;17.50;96.70
25058;DHT22;13057;50.978;11.034;2022-10-10T11:13:26;17.50;96.70
25058;DHT22;13057;50.978;11.034;2022-10-10T11:16:02;17.60;96.80
25058;DHT22;13057;50.978;11.034;2022-10-10T11:18:35;17.60;96.70
25058;DHT22;13057;50.978;11.034;2022-10-10T11:21:11;17.70;96.50
25058;DHT22;13057;50.978;11.034;2022-10-10T11:23:43;17.70;96.90
25058;DHT22;13057;50.978;11.034;2022-10-10T11:26:22;17.70;96.60
25058;DHT22;13057;50.978;11.034;2022-10-10T11:28:54;17.80;96.40
25058;DHT22;13057;50.978;11.034;2022-10-10T11:31:29;17.80;96.40
25058;DHT22;13057;50.978;11.034;2022-10-10T11:33:59;17.90;96.60
25058;DHT22;13057;50.978;11.034;2022-10-10T11:36:29;17.90;96.50
25058;DHT22;13057;50.978;11.034;2022-10-10T11:39:04;18.00;96.50
25058;DHT22;13057;50.978;11.034;2022-10-10T11:41:42;18.00;96.20
25058;DHT22;13057;50.978;11.034;2022-10-10T11:44:19;18.00;96.20
25058;DHT22;13057;50.978;11.034;2022-10-10T11:46:57;18.00;96.20
25058;DHT22;13057;50.978;11.034;2022-10-10T11:49:37;18.00;96.10
25058;DHT22;13057;50.978;11.034;2022-10-10T11:52:27;18.10;96.20
25058;DHT22;13057;50.978;11.034;2022-10-10T11:54:56;18.10;96.40
25058;DHT22;13057;50.978;11.034;2022-10-10T11:57:34;18.10;96.30
25058;DHT22;13057;50.978;11.034;2022-10-10T12:00:08;18.20;96.20
25058;DHT22;13057;50.978;11.034;2022-10-10T12:02:37;18.20;96.10
25058;DHT22;13057;50.978;11.034;2022-10-10T12:05:16;18.30;95.90
25058;DHT22;13057;50.978;11.034;2022-10-10T12:08:06;18.30;95.80
25058;DHT22;13057;50.978;11.034;2022-10-10T12:10:39;18.40;96.10
25058;DHT22;13057;50.978;11.034;2022-10-10T12:13:23;18.40;96.00
25058;DHT22;13057;50.978;11.034;2022-10-10T12:15:52;18.40;96.00
25058;DHT22;13057;50.978;11.034;2022-10-10T12:18:29;18.50;96.60
25058;DHT22;13057;50.978;11.034;2022-10-10T12:21:08;18.60;97.00
25058;DHT22;13057;50.978;11.034;2022-10-10T12:23:35;18.60;95.50
25058;DHT22;13057;50.978;11.034;2022-10-10T12:26:01;18.70;96.60
25058;DHT22;13057;50.978;11.034;2022-10-10T12:28:35;18.70;96.00
25058;DHT22;13057;50.978;11.034;2022-10-10T12:31:26;18.70;96.00
25058;DHT22;13057;50.978;11.034;2022-10-10T12:34:00;18.70;96.10
25058;DHT22;13057;50.978;11.034;2022-10-10T12:36:42;18.70;95.10
25058;DHT22;13057;50.978;11.034;2022-10-10T12:39:30;18.70;95.00
25058;DHT22;13057;50.978;11.034;2022-10-10T12:41:56;18.60;95.00
25058;DHT22;13057;50.978;11.034;2022-10-10T12:44:40;18.70;95.50
25058;DHT22;13057;50.978;11.034;2022-10-10T12:47:28;18.80;96.20
25058;DHT22;13057;50.978;11.034;2022-10-10T12:49:57;18.80;95.30
25058;DHT22;13057;50.978;11.034;2022-10-10T12:52:34;18.80;95.00
25058;DHT22;13057;50.978;11.034;2022-10-10T12:55:05;18.80;95.00
25058;DHT22;13057;50.978;11.034;2022-10-10T12:57:35;18.80;95.40
25058;DHT22;13057;50.978;11.034;2022-10-10T13:00:17;18.80;95.10
25058;DHT22;13057;50.978;11.034;2022-10-10T13:02:45;18.80;94.70
25058;DHT22;13057;50.978;11.034;2022-10-10T13:05:16;18.80;94.40
25058;DHT22;13057;50.978;11.034;2022-10-10T13:07:44;18.80;94.60
25058;DHT22;13057;50.978;11.034;2022-10-10T13:10:25;18.90;94.90
25058;DHT22;13057;50.978;11.034;2022-10-10T13:13:02;18.90;95.50
25058;DHT22;13057;50.978;11.034;2022-10-10T13:15:30;18.80;94.50
25058;DHT22;13057;50.978;11.034;2022-10-10T13:17:56;18.80;95.20
25058;DHT22;13057;50.978;11.034;2022-10-10T13:20:30;18.90;94.70
25058;DHT22;13057;50.978;11.034;2022-10-10T13:23:02;18.90;95.00
25058;DHT22;13057;50.978;11.034;2022-10-10T13:25:29;18.80;94.50
25058;DHT22;13057;50.978;11.034;2022-10-10T13:27:56;18.80;94.60
25058;DHT22;13057;50.978;11.034;2022-10-10T13:30:26;18.80;94.70
25058;DHT22;13057;50.978;11.034;2022-10-10T13:32:53;18.90;96.10
25058;DHT22;13057;50.978;11.034;2022-10-10T13:35:23;19.00;95.10
25058;DHT22;13057;50.978;11.034;2022-10-10T13:37:55;19.00;94.30
25058;DHT22;13057;50.978;11.034;2022-10-10T13:40:21;18.90;93.80
25058;DHT22;13057;50.978;11.034;2022-10-10T13:42:48;18.90;93.80
25058;DHT22;13057;50.978;11.034;2022-10-10T13:45:35;18.90;94.20
25058;DHT22;13057;50.978;11.034;2022-10-10T13:48:22;18.90;94.00
25058;DHT22;13057;50.978;11.034;2022-10-10T13:50:55;19.00;94.60
25058;DHT22;13057;50.978;11.034;2022-10-10T13:53:42;18.90;94.30
25058;DHT22;13057;50.978;11.034;2022-10-10T13:56:27;19.10;95.90
25058;DHT22;13057;50.978;11.034;2022-10-10T13:59:05;19.10;94.80
25058;DHT22;13057;50.978;11.034;2022-10-10T14:01:37;19.10;95.60
25058;DHT22;13057;50.978;11.034;2022-10-10T14:04:14;19.10;95.50
25058;DHT22;13057;50.978;11.034;2022-10-10T14:06:49;19.20;95.40
25058;DHT22;13057;50.978;11.034;2022-10-10T14:09:26;19.10;95.00
25058;DHT22;13057;50.978;11.034;2022-10-10T14:11:53;19.10;94.90
25058;DHT22;13057;50.978;11.034;2022-10-10T14:14:24;19.10;95.20
25058;DHT22;13057;50.978;11.034;2022-10-10T14:17:01;19.10;95.20
25058;DHT22;13057;50.978;11.034;2022-10-10T14:19:28;19.00;95.20
25058;DHT22;13057;50.978;11.034;2022-10-10T14:21:55;19.00;95.00
25058;DHT22;13057;50.978;11.034;2022-10-10T14:24:21;19.00;95.10
25058;DHT22;13057;50.978;11.034;2022-10-10T14:26:47;19.00;95.00
25058;DHT22;13057;50.978;11.034;2022-10-10T14:29:14;19.00;95.10
25058;DHT22;13057;50.978;11.034;2022-10-10T14:31:41;19.00;95.10
25058;DHT22;13057;50.978;11.034;2022-10-10T14:34:26;18.90;95.20
25058;DHT22;13057;50.978;11.034;2022-10-10T14:36:54;18.90;95.30
25058;DHT22;13057;50.978;11.034;2022-10-10T14:39:21;18.80;95.50
25058;DHT22;13057;50.978;11.034;2022-10-10T14:41:46;18.80;95.60
25058;DHT22;13057;50.978;11.034;2022-10-10T14:44:12;18.90;95.30
25058;DHT22;13057;50.978;11.034;2022-10-10T14:46:38;18.90;95.30
25058;DHT22;13057;50.978;11.034;2022-10-10T14:49:05;18.90;95.20
25058;DHT22;13057;50.978;11.034;2022-10-10T14:51:32;18.80;95.20
25058;DHT22;13057;50.978;11.034;2022-10-10T14:54:04;18.80;95.30
25058;DHT22;13057;50.978;11.034;2022-10-10T14:56:30;18.80;95.30
25058;DHT22;13057;50.978;11.034;2022-10-10T14:58:57;18.80;95.40
25058;DHT22;13057;50.978;11.034;2022-10-10T15:01:22;18.80;95.40
25058;DHT22;13057;50.978;11.034;2022-10-10T15:03:48;18.80;95.40
25058;DHT22;13057;50.978;11.034;2022-10-10T15:06:14;18.80;95.30
25058;DHT22;13057;50.978;11.034;2022-10-10T15:08:40;18.80;95.40
25058;DHT22;13057;50.978;11.034;2022-10-10T15:11:06;18.80;95.50
25058;DHT22;13057;50.978;11.034;2022-10-10T15:13:32;18.80;95.30
25058;DHT22;13057;50.978;11.034;2022-10-10T15:15:58;18.80;95.40
25058;DHT22;13057;50.978;11.034;2022-10-10T15:18:24;18.70;95.50
25058;DHT22;13057;50.978;11.034;2022-10-10T15:20:49;18.70;95.40
25058;DHT22;13057;50.978;11.034;2022-10-10T15:23:18;18.70;95.40
25058;DHT22;13057;50.978;11.034;2022-10-10T15:25:51;18.70;95.50
25058;DHT22;13057;50.978;11.034;2022-10-10T15:28:17;18.70;95.50
25058;DHT22;13057;50.978;11.034;2022-10-10T15:30:44;18.70;95.30
25058;DHT22;13057;50.978;11.034;2022-10-10T15:33:10;18.70;95.60
25058;DHT22;13057;50.978;11.034;2022-10-10T15:35:36;18.70;95.60
25058;DHT22;13057;50.978;11.034;2022-10-10T15:38:05;18.60;95.60
25058;DHT22;13057;50.978;11.034;2022-10-10T15:40:31;18.60;95.40
25058;DHT22;13057;50.978;11.034;2022-10-10T15:42:56;18.50;95.60
25058;DHT22;13057;50.978;11.034;2022-10-10T15:45:22;18.40;95.60
25058;DHT22;13057;50.978;11.034;2022-10-10T15:47:48;18.40;95.90